createdAt,value
2023-04-02T00:00:16.153Z,19.30
2023-04-02T00:04:40.343Z,15.50
2023-04-02T00:08:42.431Z,20.15
2023-04-02T00:12:59.759Z,18.23
2023-04-02T00:17:05.346Z,15.95
2023-04-02T00:21:22.316Z,16.50
2023-04-02T00:25:28.758Z,14.40
2023-04-02T00:29:30.696Z,12.35
2023-04-02T00:33:33.265Z,11.93
2023-04-02T00:37:39.314Z,15.38
2023-04-02T00:41:46.741Z,12.07
2023-04-02T00:45:56.134Z,13.32
2023-04-02T00:50:07.862Z,17.15
2023-04-02T00:54:15.883Z,12.05
2023-04-02T00:58:34.140Z,16.58
2023-04-02T01:02:40.750Z,14.40
2023-04-02T01:06:43.895Z,16.35
2023-04-02T01:11:02.135Z,13.18
2023-04-02T01:15:13.996Z,12.83
2023-04-02T01:19:53.599Z,14.05
2023-04-02T01:24:06.055Z,15.55
2023-04-02T01:28:19.463Z,15.30
2023-04-02T01:32:23.583Z,18.75
2023-04-02T01:36:38.037Z,18.20
2023-04-02T01:40:54.066Z,17.58
2023-04-02T01:45:05.705Z,14.20
2023-04-02T01:49:26.002Z,18.10
2023-04-02T01:53:30.746Z,20.17
2023-04-02T01:57:33.228Z,17.88
2023-04-02T02:01:48.488Z,18.08
2023-04-02T02:05:51.618Z,18.38
2023-04-02T02:09:54.161Z,17.65
2023-04-02T02:13:58.808Z,17.10
2023-04-02T02:18:05.358Z,16.40
2023-04-02T02:22:31.209Z,16.88
2023-04-02T02:26:35.933Z,16.30
2023-04-02T02:31:07.016Z,16.88
2023-04-02T02:35:19.321Z,14.57
2023-04-02T02:39:32.259Z,16.13
2023-04-02T02:43:38.790Z,16.63
2023-04-02T02:47:44.074Z,15.40
2023-04-02T02:52:13.884Z,13.20
2023-04-02T02:56:30.794Z,11.55
2023-04-02T03:00:35.513Z,10.73
2023-04-02T03:04:38.543Z,13.18
2023-04-02T03:09:12.569Z,9.88
2023-04-02T03:13:15.021Z,12.30
2023-04-02T03:18:02.413Z,11.70
2023-04-02T03:22:21.765Z,11.13
2023-04-02T03:26:39.729Z,13.77
2023-04-02T03:30:52.888Z,12.95
2023-04-02T03:34:59.653Z,13.07
2023-04-02T03:39:13.208Z,13.45
2023-04-02T03:43:22.749Z,14.10
2023-04-02T03:47:36.741Z,13.88
2023-04-02T03:52:01.921Z,13.57
2023-04-02T03:56:06.613Z,15.52
2023-04-02T04:00:17.277Z,15.05
2023-04-02T04:04:30.299Z,19.90
2023-04-02T04:08:50.297Z,19.05
2023-04-02T04:12:56.974Z,18.42
2023-04-02T04:17:09.923Z,22.53
2023-04-02T04:21:37.373Z,20.50
2023-04-02T04:26:19.870Z,22.35
2023-04-02T04:30:42.063Z,23.20
2023-04-02T04:34:51.553Z,25.45
2023-04-02T04:38:59.398Z,24.88
2023-04-02T04:43:12.465Z,24.90
2023-04-02T04:47:20.890Z,20.60
2023-04-02T04:51:31.860Z,21.70
2023-04-02T04:55:44.404Z,25.20
2023-04-02T05:00:07.040Z,27.30
2023-04-02T05:04:26.280Z,30.02
2023-04-02T05:08:35.626Z,37.60
2023-04-02T05:12:48.577Z,38.00
2023-04-02T05:17:10.841Z,43.75
2023-04-02T05:21:42.225Z,42.17
2023-04-02T05:26:09.501Z,42.00
2023-04-02T05:30:38.569Z,38.55
2023-04-02T05:34:46.413Z,41.90
2023-04-02T05:38:51.056Z,42.47
2023-04-02T05:43:02.627Z,42.65
2023-04-02T05:47:18.293Z,37.97
2023-04-02T05:51:36.275Z,35.85
2023-04-02T05:55:57.196Z,39.75
2023-04-02T06:00:07.422Z,29.85
2023-04-02T06:04:24.565Z,27.38
2023-04-02T06:08:37.472Z,23.73
2023-04-02T06:12:45.367Z,23.73
2023-04-02T06:16:48.294Z,26.67
2023-04-02T06:20:50.460Z,30.42
2023-04-02T06:25:02.924Z,32.28
2023-04-02T06:29:28.469Z,29.35
2023-04-02T06:33:31.730Z,30.05
2023-04-02T06:37:38.112Z,26.45
2023-04-02T06:42:04.833Z,22.98
2023-04-02T06:46:36.931Z,25.88
2023-04-02T06:50:58.123Z,21.13
2023-04-02T06:55:04.819Z,22.05
2023-04-02T06:59:07.838Z,22.33
2023-04-02T07:03:19.704Z,20.63
2023-04-02T07:07:21.876Z,19.30
2023-04-02T07:11:26.229Z,22.30
2023-04-02T07:15:32.327Z,20.05
2023-04-02T07:19:34.909Z,22.58
2023-04-02T07:23:37.310Z,20.02
2023-04-02T07:27:39.330Z,17.10
2023-04-02T07:31:41.670Z,21.00
2023-04-02T07:35:44.237Z,21.73
2023-04-02T07:39:46.464Z,19.77
2023-04-02T07:43:48.853Z,17.83
2023-04-02T07:47:51.448Z,15.55
2023-04-02T07:51:53.674Z,16.40
2023-04-02T07:55:57.551Z,17.90
2023-04-02T07:59:59.617Z,18.55
2023-04-02T08:04:04.418Z,17.42
2023-04-02T08:08:06.504Z,17.08
2023-04-02T08:12:13.218Z,16.40
2023-04-02T08:16:16.070Z,15.35
2023-04-02T08:20:20.910Z,14.00
2023-04-02T08:24:23.335Z,12.05
2023-04-02T08:28:25.566Z,13.70
2023-04-02T08:32:29.100Z,12.85
2023-04-02T08:36:35.978Z,13.45
2023-04-02T08:40:42.526Z,14.65
2023-04-02T08:45:24.853Z,13.30
2023-04-02T08:49:32.724Z,11.38
2023-04-02T08:53:37.635Z,12.45
2023-04-02T08:58:02.384Z,9.93
2023-04-02T09:02:39.528Z,10.75
2023-04-02T09:06:43.845Z,10.77
2023-04-02T09:10:53.408Z,12.50
2023-04-02T09:15:05.548Z,14.68
2023-04-02T09:19:41.763Z,15.05
2023-04-02T09:23:43.841Z,12.65
2023-04-02T09:27:50.024Z,11.75
2023-04-02T09:32:07.433Z,11.93
2023-04-02T09:36:18.361Z,11.85
2023-04-02T09:40:32.115Z,11.77
2023-04-02T09:44:35.080Z,10.95
2023-04-02T09:48:58.374Z,10.07
2023-04-02T09:53:28.893Z,10.05
2023-04-02T09:57:32.855Z,9.52
2023-04-02T10:01:37.593Z,9.40
2023-04-02T10:05:41.491Z,13.70
2023-04-02T10:09:43.746Z,10.43
2023-04-02T10:13:57.265Z,10.60
2023-04-02T10:18:22.814Z,8.57
2023-04-02T10:22:28.159Z,9.82
2023-04-02T10:26:55.101Z,8.45
2023-04-02T10:31:09.862Z,9.18
2023-04-02T10:35:52.384Z,11.75
2023-04-02T10:40:01.923Z,9.05
2023-04-02T10:44:31.352Z,10.88
2023-04-02T10:48:58.708Z,10.68
2023-04-02T10:53:07.789Z,11.05
2023-04-02T10:57:24.113Z,12.02
2023-04-02T11:01:30.411Z,11.60
2023-04-02T11:05:46.545Z,16.67
2023-04-02T11:09:52.560Z,13.00
2023-04-02T11:14:15.473Z,17.20
2023-04-02T11:18:32.710Z,18.85
2023-04-02T11:22:34.807Z,20.52
2023-04-02T11:26:47.370Z,20.25
2023-04-02T11:30:49.692Z,25.15
2023-04-02T11:35:05.244Z,23.80
2023-04-02T11:39:17.077Z,37.97
2023-04-02T11:43:49.706Z,23.60
2023-04-02T11:48:01.032Z,22.10
2023-04-02T11:52:12.066Z,17.60
2023-04-02T11:56:26.091Z,18.63
2023-04-02T12:00:47.637Z,22.52
2023-04-02T12:05:09.208Z,19.35
2023-04-02T12:09:42.475Z,17.13
2023-04-02T12:13:44.511Z,19.50
2023-04-02T12:17:46.840Z,21.50
2023-04-02T12:21:51.289Z,19.77
2023-04-02T12:25:58.555Z,21.50
2023-04-02T12:30:17.799Z,19.00
2023-04-02T12:34:22.721Z,18.50
2023-04-02T12:38:28.079Z,22.33
2023-04-02T12:42:39.095Z,20.25
2023-04-02T12:46:41.372Z,18.50
2023-04-02T12:50:43.622Z,16.10
2023-04-02T12:54:53.649Z,19.08
2023-04-02T12:59:01.254Z,16.65
2023-04-02T13:03:06.473Z,16.73
2023-04-02T13:07:17.559Z,14.60
2023-04-02T13:11:20.323Z,15.80
2023-04-02T13:15:27.178Z,14.88
2023-04-02T13:19:34.103Z,16.27
2023-04-02T13:23:37.645Z,16.25
2023-04-02T13:27:39.484Z,14.23
2023-04-02T13:31:41.571Z,16.38
2023-04-02T13:35:44.111Z,24.20
2023-04-02T13:39:46.235Z,19.90
2023-04-02T13:43:52.850Z,55.13
2023-04-02T13:47:57.285Z,15.80
2023-04-02T13:52:03.166Z,10.75
2023-04-02T13:56:05.504Z,12.43
2023-04-02T14:00:08.105Z,13.82
2023-04-02T14:04:13.664Z,14.48
2023-04-02T14:08:44.198Z,14.30
2023-04-02T14:12:59.852Z,14.20
2023-04-02T14:17:28.523Z,14.23
2023-04-02T14:21:51.909Z,15.02
2023-04-02T14:26:17.493Z,22.38
2023-04-02T14:30:38.454Z,15.43
2023-04-02T14:34:58.813Z,17.20
2023-04-02T14:39:22.435Z,14.35
2023-04-02T14:43:33.176Z,12.65
2023-04-02T14:47:42.899Z,18.15
2023-04-02T14:51:51.497Z,16.38
2023-04-02T15:00:20.910Z,14.73
2023-04-02T15:04:30.987Z,16.08
2023-04-02T15:09:20.330Z,13.05
2023-04-02T15:13:45.399Z,13.32
2023-04-02T15:17:47.395Z,20.80
2023-04-02T15:22:00.000Z,19.73
2023-04-02T15:26:10.834Z,20.27
2023-04-02T15:30:18.744Z,14.52
2023-04-02T15:34:32.435Z,17.95
2023-04-02T15:38:42.354Z,20.70
2023-04-02T15:42:52.579Z,23.48
2023-04-02T15:47:22.527Z,32.95
2023-04-02T15:51:24.498Z,23.55
2023-04-02T15:55:39.492Z,23.50
2023-04-02T16:00:00.723Z,25.27
2023-04-02T16:04:02.782Z,23.80
2023-04-02T16:08:13.509Z,28.85
2023-04-02T16:12:19.433Z,21.85
2023-04-02T16:16:32.790Z,21.60
2023-04-02T16:20:40.712Z,21.02
2023-04-02T16:24:43.008Z,21.35
2023-04-02T16:29:14.197Z,16.75
2023-04-02T16:33:24.989Z,17.48
2023-04-02T16:37:39.889Z,28.95
2023-04-02T16:42:05.803Z,21.45
2023-04-02T16:46:15.733Z,30.95
2023-04-02T16:50:36.567Z,27.02
2023-04-02T16:54:51.296Z,41.35
2023-04-02T16:58:58.111Z,33.35
2023-04-02T17:03:47.646Z,25.23
2023-04-02T17:08:01.765Z,29.08
2023-04-02T17:12:11.699Z,28.63
2023-04-02T17:16:21.067Z,25.98
2023-04-02T17:20:25.052Z,22.42
2023-04-02T17:24:38.914Z,25.15
2023-04-02T17:28:41.843Z,23.05
2023-04-02T17:32:44.647Z,22.67
2023-04-02T17:36:55.648Z,30.65
2023-04-02T17:41:05.681Z,29.10
2023-04-02T17:45:42.870Z,32.28
2023-04-02T17:50:09.160Z,31.85
2023-04-02T17:54:25.941Z,37.35
2023-04-02T17:58:52.930Z,26.25
2023-04-02T18:03:09.330Z,27.00
2023-04-02T18:07:33.391Z,25.23
2023-04-02T18:11:54.535Z,42.70
2023-04-02T18:16:13.398Z,31.25
2023-04-02T18:20:38.891Z,26.15
2023-04-02T18:24:50.689Z,26.13
2023-04-02T18:28:59.064Z,19.65
2023-04-02T18:33:30.890Z,23.13
2023-04-02T18:37:41.682Z,20.48
2023-04-02T18:41:59.542Z,19.45
2023-04-02T18:46:09.175Z,17.15
2023-04-02T18:50:33.631Z,21.67
2023-04-02T18:54:41.305Z,20.45
2023-04-02T18:58:56.929Z,22.55
2023-04-02T19:03:27.001Z,21.08
2023-04-02T19:07:33.698Z,17.02
2023-04-02T19:11:36.039Z,21.67
2023-04-02T19:16:10.682Z,18.75
2023-04-02T19:20:29.878Z,20.08
2023-04-02T19:25:10.146Z,23.92
2023-04-02T19:29:40.518Z,25.00
2023-04-02T19:34:32.317Z,26.02
2023-04-02T19:38:49.136Z,17.63
2023-04-02T19:42:54.735Z,26.27
2023-04-02T19:46:56.831Z,17.45
2023-04-02T19:50:58.992Z,25.13
2023-04-02T19:55:01.040Z,17.10
2023-04-02T19:59:17.246Z,20.02
2023-04-02T20:03:20.582Z,18.90
2023-04-02T20:07:22.627Z,23.67
2023-04-02T20:11:26.614Z,24.08
2023-04-02T20:15:47.376Z,23.95
2023-04-02T20:19:49.455Z,25.20
2023-04-02T20:23:55.496Z,22.70
2023-04-02T20:27:57.853Z,24.85
2023-04-02T20:31:59.888Z,30.70
2023-04-02T20:36:08.096Z,44.45
2023-04-02T20:40:10.769Z,26.90
2023-04-02T20:44:13.065Z,24.15
2023-04-02T20:48:15.178Z,27.10
2023-04-02T20:52:17.313Z,16.17
2023-04-02T20:56:20.932Z,23.15
2023-04-02T21:00:23.210Z,22.40
2023-04-02T21:04:25.632Z,14.43
2023-04-02T21:08:27.870Z,11.57
2023-04-02T21:12:31.120Z,12.32
2023-04-02T21:16:33.934Z,15.02
2023-04-02T21:20:36.504Z,12.20
2023-04-02T21:24:38.604Z,10.50
2023-04-02T21:28:41.486Z,9.20
2023-04-02T21:32:43.571Z,10.07
2023-04-02T21:36:48.278Z,8.98
2023-04-02T21:40:50.518Z,10.90
2023-04-02T21:44:53.367Z,9.50
2023-04-02T21:48:58.383Z,7.03
2023-04-02T21:53:00.616Z,9.27
2023-04-02T21:57:03.131Z,4.18
2023-04-02T22:01:09.097Z,6.72
2023-04-02T22:05:13.690Z,9.48
2023-04-02T22:09:18.431Z,7.10
2023-04-02T22:13:20.595Z,23.58
2023-04-02T22:17:22.798Z,13.65
2023-04-02T22:21:25.722Z,8.38
2023-04-02T22:25:27.482Z,7.57
2023-04-02T22:29:29.563Z,7.32
2023-04-02T22:33:32.437Z,4.45
2023-04-02T22:37:34.590Z,9.30
2023-04-02T22:41:36.801Z,8.63
2023-04-02T22:45:38.919Z,4.55
2023-04-02T22:49:41.205Z,4.78
2023-04-02T22:53:43.886Z,6.88
2023-04-02T22:57:46.154Z,7.28
2023-04-02T23:01:48.393Z,6.18
2023-04-02T23:06:05.577Z,5.60
2023-04-02T23:10:07.956Z,6.82
2023-04-02T23:14:10.330Z,16.63
2023-04-02T23:18:12.392Z,6.25
2023-04-02T23:22:14.472Z,5.72
2023-04-02T23:26:21.232Z,7.18
2023-04-02T23:30:23.423Z,6.85
2023-04-02T23:34:25.481Z,7.72
2023-04-02T23:38:27.556Z,9.45
2023-04-02T23:42:29.641Z,4.90
2023-04-02T23:46:32.940Z,7.28
2023-04-02T23:50:35.376Z,13.20
2023-04-02T23:54:37.709Z,7.50
2023-04-02T23:58:39.805Z,7.65
